Terminal Aerodrome Forecast
Issued by NWS Pendleton, OR

Home | Current Version | Previous Version | Text Only | Print | Product List | Glossary On
Versions: 1 2 3 4 5 6 7 8 9 10 11 12 13 14 15 16 17 18 19 20 21 22 23 24 25
000
FTUS46 KPDT 221136 AAC
TAFPDT
TAF AMD
KPDT 221136Z 2212/2312 15007KT 5SM BR VCSH BKN040 OVC070
     FM222300 VRB03KT P6SM BKN070
     FM230300 VRB03KT P6SM SCT070 BKN120=

USA.gov is the U.S. government's official web portal to all federal, state and local government web resources and services.